sensor_id;sensor_type;location;lat;lon;timestamp;P1;durP1;ratioP1;P2;durP2;ratioP2
75059;SDS011;63640;59.264;18.116;2023-02-12T00:02:24;15.48;;;5.50;;
75059;SDS011;63640;59.264;18.116;2023-02-12T00:07:15;11.02;;;4.35;;
75059;SDS011;63640;59.264;18.116;2023-02-12T00:12:06;9.40;;;3.63;;
75059;SDS011;63640;59.264;18.116;2023-02-12T00:16:58;13.07;;;4.45;;
75059;SDS011;63640;59.264;18.116;2023-02-12T00:21:50;10.45;;;4.55;;
75059;SDS011;63640;59.264;18.116;2023-02-12T00:26:40;16.75;;;5.13;;
75059;SDS011;63640;59.264;18.116;2023-02-12T00:29:06;11.82;;;4.97;;
75059;SDS011;63640;59.264;18.116;2023-02-12T00:33:57;11.75;;;4.55;;
75059;SDS011;63640;59.264;18.116;2023-02-12T00:36:25;13.35;;;4.38;;
75059;SDS011;63640;59.264;18.116;2023-02-12T00:38:52;16.95;;;4.40;;
75059;SDS011;63640;59.264;18.116;2023-02-12T00:41:18;8.70;;;4.07;;
75059;SDS011;63640;59.264;18.116;2023-02-12T00:43:44;11.20;;;3.45;;
75059;SDS011;63640;59.264;18.116;2023-02-12T00:46:11;11.23;;;2.90;;
75059;SDS011;63640;59.264;18.116;2023-02-12T00:51:02;7.95;;;2.22;;
75059;SDS011;63640;59.264;18.116;2023-02-12T00:53:28;7.82;;;2.28;;
75059;SDS011;63640;59.264;18.116;2023-02-12T00:55:55;6.80;;;2.00;;
75059;SDS011;63640;59.264;18.116;2023-02-12T00:58:20;8.73;;;2.00;;
75059;SDS011;63640;59.264;18.116;2023-02-12T01:00:46;13.18;;;2.65;;
75059;SDS011;63640;59.264;18.116;2023-02-12T01:03:11;9.88;;;2.20;;
75059;SDS011;63640;59.264;18.116;2023-02-12T01:08:03;6.90;;;2.08;;
75059;SDS011;63640;59.264;18.116;2023-02-12T01:10:29;6.80;;;2.20;;
75059;SDS011;63640;59.264;18.116;2023-02-12T01:12:55;8.38;;;1.70;;
75059;SDS011;63640;59.264;18.116;2023-02-12T01:15:21;8.82;;;2.20;;
75059;SDS011;63640;59.264;18.116;2023-02-12T01:20:13;5.68;;;2.08;;
75059;SDS011;63640;59.264;18.116;2023-02-12T01:22:41;8.52;;;2.58;;
75059;SDS011;63640;59.264;18.116;2023-02-12T01:25:07;7.45;;;2.60;;
75059;SDS011;63640;59.264;18.116;2023-02-12T01:27:34;8.18;;;2.63;;
75059;SDS011;63640;59.264;18.116;2023-02-12T01:29:59;7.13;;;2.83;;
75059;SDS011;63640;59.264;18.116;2023-02-12T01:32:25;11.07;;;2.42;;
75059;SDS011;63640;59.264;18.116;2023-02-12T01:34:51;6.70;;;2.95;;
75059;SDS011;63640;59.264;18.116;2023-02-12T01:37:16;8.68;;;2.72;;
75059;SDS011;63640;59.264;18.116;2023-02-12T01:39:42;8.95;;;2.70;;
75059;SDS011;63640;59.264;18.116;2023-02-12T01:42:11;12.05;;;2.60;;
75059;SDS011;63640;59.264;18.116;2023-02-12T01:44:38;11.05;;;2.78;;
75059;SDS011;63640;59.264;18.116;2023-02-12T01:47:11;8.60;;;2.45;;
75059;SDS011;63640;59.264;18.116;2023-02-12T01:49:41;12.10;;;2.85;;
75059;SDS011;63640;59.264;18.116;2023-02-12T01:52:12;9.63;;;3.55;;
75059;SDS011;63640;59.264;18.116;2023-02-12T01:54:39;7.65;;;2.80;;
75059;SDS011;63640;59.264;18.116;2023-02-12T01:57:06;8.35;;;3.00;;
75059;SDS011;63640;59.264;18.116;2023-02-12T01:59:34;8.40;;;2.70;;
75059;SDS011;63640;59.264;18.116;2023-02-12T02:02:01;8.73;;;2.72;;
75059;SDS011;63640;59.264;18.116;2023-02-12T02:04:28;8.55;;;2.53;;
75059;SDS011;63640;59.264;18.116;2023-02-12T02:06:57;7.88;;;2.72;;
75059;SDS011;63640;59.264;18.116;2023-02-12T02:09:24;12.73;;;3.28;;
75059;SDS011;63640;59.264;18.116;2023-02-12T02:11:50;7.28;;;2.55;;
75059;SDS011;63640;59.264;18.116;2023-02-12T02:14:35;6.72;;;2.17;;
75059;SDS011;63640;59.264;18.116;2023-02-12T02:19:47;6.25;;;1.98;;
75059;SDS011;63640;59.264;18.116;2023-02-12T02:30:43;5.20;;;1.98;;
75059;SDS011;63640;59.264;18.116;2023-02-12T02:33:21;5.15;;;1.40;;
75059;SDS011;63640;59.264;18.116;2023-02-12T02:38:59;10.43;;;1.73;;
75059;SDS011;63640;59.264;18.116;2023-02-12T02:41:33;7.88;;;2.75;;
75059;SDS011;63640;59.264;18.116;2023-02-12T02:44:04;7.80;;;1.65;;
75059;SDS011;63640;59.264;18.116;2023-02-12T02:46:39;5.32;;;1.42;;
75059;SDS011;63640;59.264;18.116;2023-02-12T02:49:17;5.93;;;1.13;;
75059;SDS011;63640;59.264;18.116;2023-02-12T02:51:48;11.93;;;2.50;;
75059;SDS011;63640;59.264;18.116;2023-02-12T02:55:00;4.53;;;1.50;;
75059;SDS011;63640;59.264;18.116;2023-02-12T02:57:15;10.20;;;2.03;;
75059;SDS011;63640;59.264;18.116;2023-02-12T02:59:58;5.28;;;1.45;;
75059;SDS011;63640;59.264;18.116;2023-02-12T03:02:33;7.38;;;2.20;;
75059;SDS011;63640;59.264;18.116;2023-02-12T03:05:03;5.50;;;1.38;;
75059;SDS011;63640;59.264;18.116;2023-02-12T03:07:40;7.20;;;1.63;;
75059;SDS011;63640;59.264;18.116;2023-02-12T03:10:15;4.70;;;1.52;;
75059;SDS011;63640;59.264;18.116;2023-02-12T03:12:46;6.97;;;1.50;;
75059;SDS011;63640;59.264;18.116;2023-02-12T03:15:16;7.32;;;1.83;;
75059;SDS011;63640;59.264;18.116;2023-02-12T03:17:57;6.38;;;1.65;;
75059;SDS011;63640;59.264;18.116;2023-02-12T03:20:23;5.35;;;1.60;;
75059;SDS011;63640;59.264;18.116;2023-02-12T03:23:14;6.90;;;1.75;;
75059;SDS011;63640;59.264;18.116;2023-02-12T03:25:41;9.15;;;2.72;;
75059;SDS011;63640;59.264;18.116;2023-02-12T03:28:18;7.35;;;1.60;;
75059;SDS011;63640;59.264;18.116;2023-02-12T03:30:55;10.32;;;2.00;;
75059;SDS011;63640;59.264;18.116;2023-02-12T03:33:28;8.05;;;2.03;;
75059;SDS011;63640;59.264;18.116;2023-02-12T03:38:52;8.77;;;1.50;;
75059;SDS011;63640;59.264;18.116;2023-02-12T03:41:24;5.40;;;1.20;;
75059;SDS011;63640;59.264;18.116;2023-02-12T03:47:21;5.93;;;1.95;;
75059;SDS011;63640;59.264;18.116;2023-02-12T03:49:52;5.90;;;1.92;;
75059;SDS011;63640;59.264;18.116;2023-02-12T03:52:40;6.20;;;1.38;;
75059;SDS011;63640;59.264;18.116;2023-02-12T03:55:07;5.47;;;1.10;;
75059;SDS011;63640;59.264;18.116;2023-02-12T03:57:33;7.10;;;1.40;;
75059;SDS011;63640;59.264;18.116;2023-02-12T04:00:11;8.90;;;1.33;;
75059;SDS011;63640;59.264;18.116;2023-02-12T04:02:41;5.45;;;1.38;;
75059;SDS011;63640;59.264;18.116;2023-02-12T04:05:07;7.65;;;1.63;;
75059;SDS011;63640;59.264;18.116;2023-02-12T04:07:39;9.95;;;1.55;;
75059;SDS011;63640;59.264;18.116;2023-02-12T04:10:05;7.05;;;1.40;;
75059;SDS011;63640;59.264;18.116;2023-02-12T04:15:28;10.20;;;2.03;;
75059;SDS011;63640;59.264;18.116;2023-02-12T04:18:09;4.32;;;1.63;;
75059;SDS011;63640;59.264;18.116;2023-02-12T04:29:41;4.93;;;1.30;;
75059;SDS011;63640;59.264;18.116;2023-02-12T04:32:22;7.07;;;1.20;;
75059;SDS011;63640;59.264;18.116;2023-02-12T04:39:58;6.57;;;1.20;;
75059;SDS011;63640;59.264;18.116;2023-02-12T04:42:24;4.47;;;1.20;;
75059;SDS011;63640;59.264;18.116;2023-02-12T04:44:50;5.25;;;1.30;;
75059;SDS011;63640;59.264;18.116;2023-02-12T04:47:15;8.65;;;1.55;;
75059;SDS011;63640;59.264;18.116;2023-02-12T04:49:41;7.32;;;1.60;;
75059;SDS011;63640;59.264;18.116;2023-02-12T04:52:07;7.93;;;1.42;;
75059;SDS011;63640;59.264;18.116;2023-02-12T04:54:33;5.78;;;1.20;;
75059;SDS011;63640;59.264;18.116;2023-02-12T04:56:59;4.88;;;1.25;;
75059;SDS011;63640;59.264;18.116;2023-02-12T04:59:24;4.35;;;1.38;;
75059;SDS011;63640;59.264;18.116;2023-02-12T05:01:50;6.88;;;1.35;;
75059;SDS011;63640;59.264;18.116;2023-02-12T05:04:16;4.13;;;1.10;;
75059;SDS011;63640;59.264;18.116;2023-02-12T05:06:42;4.60;;;1.30;;
75059;SDS011;63640;59.264;18.116;2023-02-12T05:09:09;3.78;;;1.00;;
75059;SDS011;63640;59.264;18.116;2023-02-12T05:11:38;8.23;;;1.15;;
75059;SDS011;63640;59.264;18.116;2023-02-12T05:14:04;7.03;;;1.40;;
75059;SDS011;63640;59.264;18.116;2023-02-12T05:16:30;5.47;;;1.15;;
75059;SDS011;63640;59.264;18.116;2023-02-12T05:18:55;8.85;;;1.45;;
75059;SDS011;63640;59.264;18.116;2023-02-12T05:21:21;4.53;;;1.38;;
75059;SDS011;63640;59.264;18.116;2023-02-12T05:23:46;4.15;;;1.10;;
75059;SDS011;63640;59.264;18.116;2023-02-12T05:26:14;4.15;;;1.00;;
75059;SDS011;63640;59.264;18.116;2023-02-12T05:28:41;4.85;;;0.85;;
75059;SDS011;63640;59.264;18.116;2023-02-12T05:31:08;7.25;;;1.00;;
75059;SDS011;63640;59.264;18.116;2023-02-12T05:33:35;2.97;;;0.88;;
75059;SDS011;63640;59.264;18.116;2023-02-12T05:36:04;5.53;;;1.27;;
75059;SDS011;63640;59.264;18.116;2023-02-12T05:38:31;3.83;;;1.17;;
75059;SDS011;63640;59.264;18.116;2023-02-12T05:41:05;6.85;;;1.13;;
75059;SDS011;63640;59.264;18.116;2023-02-12T05:43:49;6.32;;;1.30;;
75059;SDS011;63640;59.264;18.116;2023-02-12T05:46:15;6.53;;;1.17;;
75059;SDS011;63640;59.264;18.116;2023-02-12T05:48:41;5.78;;;1.20;;
75059;SDS011;63640;59.264;18.116;2023-02-12T05:51:08;6.97;;;1.10;;
75059;SDS011;63640;59.264;18.116;2023-02-12T05:53:35;3.65;;;1.17;;
75059;SDS011;63640;59.264;18.116;2023-02-12T05:56:08;7.68;;;1.20;;
75059;SDS011;63640;59.264;18.116;2023-02-12T05:58:41;3.78;;;1.05;;
75059;SDS011;63640;59.264;18.116;2023-02-12T06:01:13;4.13;;;1.10;;
75059;SDS011;63640;59.264;18.116;2023-02-12T06:03:43;4.03;;;1.25;;
75059;SDS011;63640;59.264;18.116;2023-02-12T06:06:09;5.13;;;0.98;;
75059;SDS011;63640;59.264;18.116;2023-02-12T06:08:35;7.07;;;1.00;;
75059;SDS011;63640;59.264;18.116;2023-02-12T06:11:01;4.90;;;1.17;;
75059;SDS011;63640;59.264;18.116;2023-02-12T06:13:27;5.93;;;1.13;;
75059;SDS011;63640;59.264;18.116;2023-02-12T06:15:54;6.28;;;1.27;;
75059;SDS011;63640;59.264;18.116;2023-02-12T06:18:19;4.60;;;1.10;;
75059;SDS011;63640;59.264;18.116;2023-02-12T06:20:45;4.40;;;1.15;;
75059;SDS011;63640;59.264;18.116;2023-02-12T06:23:10;6.82;;;1.20;;
75059;SDS011;63640;59.264;18.116;2023-02-12T06:25:36;6.43;;;1.08;;
75059;SDS011;63640;59.264;18.116;2023-02-12T06:28:01;4.80;;;1.30;;
75059;SDS011;63640;59.264;18.116;2023-02-12T06:30:27;6.50;;;1.40;;
75059;SDS011;63640;59.264;18.116;2023-02-12T06:32:53;12.82;;;1.45;;
75059;SDS011;63640;59.264;18.116;2023-02-12T06:35:18;6.55;;;1.25;;
75059;SDS011;63640;59.264;18.116;2023-02-12T06:37:44;4.00;;;1.15;;
75059;SDS011;63640;59.264;18.116;2023-02-12T06:40:09;5.75;;;1.65;;
75059;SDS011;63640;59.264;18.116;2023-02-12T06:42:35;4.47;;;1.35;;
75059;SDS011;63640;59.264;18.116;2023-02-12T06:45:00;6.63;;;1.77;;
75059;SDS011;63640;59.264;18.116;2023-02-12T06:47:27;6.38;;;1.45;;
75059;SDS011;63640;59.264;18.116;2023-02-12T06:49:53;7.63;;;1.83;;
75059;SDS011;63640;59.264;18.116;2023-02-12T06:52:18;8.00;;;1.45;;
75059;SDS011;63640;59.264;18.116;2023-02-12T06:54:45;7.53;;;1.58;;
75059;SDS011;63640;59.264;18.116;2023-02-12T06:57:10;5.30;;;1.10;;
75059;SDS011;63640;59.264;18.116;2023-02-12T06:59:36;6.75;;;1.73;;
75059;SDS011;63640;59.264;18.116;2023-02-12T07:02:01;8.15;;;2.08;;
75059;SDS011;63640;59.264;18.116;2023-02-12T07:04:27;6.07;;;1.60;;
75059;SDS011;63640;59.264;18.116;2023-02-12T07:06:53;11.65;;;2.92;;
75059;SDS011;63640;59.264;18.116;2023-02-12T07:09:18;7.25;;;1.92;;
75059;SDS011;63640;59.264;18.116;2023-02-12T07:11:44;8.65;;;2.08;;
75059;SDS011;63640;59.264;18.116;2023-02-12T07:14:15;9.02;;;1.88;;
75059;SDS011;63640;59.264;18.116;2023-02-12T07:16:41;8.93;;;2.20;;
75059;SDS011;63640;59.264;18.116;2023-02-12T07:19:07;6.88;;;2.22;;
75059;SDS011;63640;59.264;18.116;2023-02-12T07:21:35;5.80;;;1.60;;
75059;SDS011;63640;59.264;18.116;2023-02-12T07:24:00;7.30;;;1.75;;
75059;SDS011;63640;59.264;18.116;2023-02-12T07:26:26;4.40;;;1.42;;
75059;SDS011;63640;59.264;18.116;2023-02-12T07:28:52;4.10;;;1.35;;
75059;SDS011;63640;59.264;18.116;2023-02-12T07:31:21;9.73;;;1.50;;
75059;SDS011;63640;59.264;18.116;2023-02-12T07:33:47;6.05;;;1.30;;
75059;SDS011;63640;59.264;18.116;2023-02-12T07:36:14;5.78;;;1.48;;
75059;SDS011;63640;59.264;18.116;2023-02-12T07:38:41;5.50;;;1.45;;
75059;SDS011;63640;59.264;18.116;2023-02-12T07:41:11;4.60;;;1.50;;
75059;SDS011;63640;59.264;18.116;2023-02-12T07:43:39;7.55;;;1.80;;
75059;SDS011;63640;59.264;18.116;2023-02-12T07:46:16;8.10;;;1.95;;
75059;SDS011;63640;59.264;18.116;2023-02-12T07:48:44;8.23;;;1.70;;
75059;SDS011;63640;59.264;18.116;2023-02-12T07:51:11;12.85;;;3.10;;
75059;SDS011;63640;59.264;18.116;2023-02-12T07:53:39;11.90;;;2.20;;
75059;SDS011;63640;59.264;18.116;2023-02-12T07:56:12;6.90;;;2.08;;
75059;SDS011;63640;59.264;18.116;2023-02-12T08:01:11;8.82;;;1.73;;
75059;SDS011;63640;59.264;18.116;2023-02-12T08:03:47;8.57;;;1.90;;
75059;SDS011;63640;59.264;18.116;2023-02-12T08:06:15;12.75;;;1.83;;
75059;SDS011;63640;59.264;18.116;2023-02-12T08:08:45;9.02;;;1.98;;
75059;SDS011;63640;59.264;18.116;2023-02-12T08:11:12;5.82;;;1.67;;
75059;SDS011;63640;59.264;18.116;2023-02-12T08:13:38;8.57;;;1.70;;
75059;SDS011;63640;59.264;18.116;2023-02-12T08:16:08;7.78;;;1.60;;
75059;SDS011;63640;59.264;18.116;2023-02-12T08:18:35;8.45;;;1.45;;
75059;SDS011;63640;59.264;18.116;2023-02-12T08:21:02;10.95;;;1.60;;
75059;SDS011;63640;59.264;18.116;2023-02-12T08:23:29;11.13;;;1.63;;
75059;SDS011;63640;59.264;18.116;2023-02-12T08:26:03;5.68;;;1.70;;
75059;SDS011;63640;59.264;18.116;2023-02-12T08:28:47;12.95;;;2.13;;
75059;SDS011;63640;59.264;18.116;2023-02-12T08:33:47;9.77;;;1.70;;
75059;SDS011;63640;59.264;18.116;2023-02-12T08:36:15;12.10;;;2.70;;
75059;SDS011;63640;59.264;18.116;2023-02-12T08:38:42;9.10;;;2.03;;
75059;SDS011;63640;59.264;18.116;2023-02-12T08:43:44;10.27;;;1.77;;
75059;SDS011;63640;59.264;18.116;2023-02-12T08:46:11;9.18;;;2.15;;
75059;SDS011;63640;59.264;18.116;2023-02-12T08:48:41;9.20;;;1.75;;
75059;SDS011;63640;59.264;18.116;2023-02-12T08:51:25;8.27;;;1.67;;
75059;SDS011;63640;59.264;18.116;2023-02-12T08:53:54;11.32;;;2.38;;
75059;SDS011;63640;59.264;18.116;2023-02-12T08:56:21;7.13;;;1.60;;
75059;SDS011;63640;59.264;18.116;2023-02-12T08:58:47;10.40;;;1.80;;
75059;SDS011;63640;59.264;18.116;2023-02-12T09:01:14;8.20;;;1.63;;
75059;SDS011;63640;59.264;18.116;2023-02-12T09:03:41;10.65;;;1.98;;
75059;SDS011;63640;59.264;18.116;2023-02-12T09:06:08;13.43;;;2.10;;
75059;SDS011;63640;59.264;18.116;2023-02-12T09:08:34;13.00;;;2.05;;
75059;SDS011;63640;59.264;18.116;2023-02-12T09:11:07;10.57;;;3.67;;
75059;SDS011;63640;59.264;18.116;2023-02-12T09:13:37;11.27;;;2.45;;
75059;SDS011;63640;59.264;18.116;2023-02-12T09:16:04;15.75;;;5.32;;
75059;SDS011;63640;59.264;18.116;2023-02-12T09:18:31;10.32;;;2.92;;
75059;SDS011;63640;59.264;18.116;2023-02-12T09:21:10;12.18;;;1.60;;
75059;SDS011;63640;59.264;18.116;2023-02-12T09:23:38;7.32;;;2.08;;
75059;SDS011;63640;59.264;18.116;2023-02-12T09:26:04;11.63;;;2.63;;
75059;SDS011;63640;59.264;18.116;2023-02-12T09:28:31;17.00;;;2.75;;
75059;SDS011;63640;59.264;18.116;2023-02-12T09:30:56;7.78;;;2.13;;
75059;SDS011;63640;59.264;18.116;2023-02-12T09:33:22;12.70;;;2.63;;
75059;SDS011;63640;59.264;18.116;2023-02-12T09:35:47;8.80;;;2.10;;
75059;SDS011;63640;59.264;18.116;2023-02-12T09:38:15;11.15;;;1.95;;
75059;SDS011;63640;59.264;18.116;2023-02-12T09:43:43;12.10;;;2.22;;
75059;SDS011;63640;59.264;18.116;2023-02-12T09:51:20;9.65;;;2.10;;
75059;SDS011;63640;59.264;18.116;2023-02-12T09:53:46;9.70;;;1.92;;
75059;SDS011;63640;59.264;18.116;2023-02-12T09:56:17;8.95;;;2.20;;
75059;SDS011;63640;59.264;18.116;2023-02-12T09:58:54;10.82;;;2.40;;
75059;SDS011;63640;59.264;18.116;2023-02-12T10:01:23;14.25;;;2.85;;
75059;SDS011;63640;59.264;18.116;2023-02-12T10:03:49;11.90;;;2.38;;
75059;SDS011;63640;59.264;18.116;2023-02-12T10:06:18;11.93;;;2.50;;
75059;SDS011;63640;59.264;18.116;2023-02-12T10:17:22;9.77;;;2.53;;
75059;SDS011;63640;59.264;18.116;2023-02-12T10:25:56;8.77;;;2.00;;
75059;SDS011;63640;59.264;18.116;2023-02-12T10:28:25;11.63;;;2.50;;
75059;SDS011;63640;59.264;18.116;2023-02-12T10:33:24;12.32;;;2.45;;
75059;SDS011;63640;59.264;18.116;2023-02-12T10:35:58;9.98;;;2.20;;
75059;SDS011;63640;59.264;18.116;2023-02-12T10:38:41;10.02;;;2.13;;
75059;SDS011;63640;59.264;18.116;2023-02-12T10:41:09;10.32;;;2.38;;
75059;SDS011;63640;59.264;18.116;2023-02-12T10:43:35;17.20;;;2.28;;
75059;SDS011;63640;59.264;18.116;2023-02-12T10:46:01;8.40;;;2.30;;
75059;SDS011;63640;59.264;18.116;2023-02-12T10:48:37;8.90;;;2.15;;
75059;SDS011;63640;59.264;18.116;2023-02-12T10:53:32;10.02;;;2.70;;
75059;SDS011;63640;59.264;18.116;2023-02-12T10:56:17;10.30;;;2.20;;
75059;SDS011;63640;59.264;18.116;2023-02-12T11:03:56;10.85;;;2.47;;
75059;SDS011;63640;59.264;18.116;2023-02-12T11:08:50;14.25;;;2.65;;
75059;SDS011;63640;59.264;18.116;2023-02-12T11:11:23;12.23;;;2.28;;
75059;SDS011;63640;59.264;18.116;2023-02-12T11:14:24;13.38;;;2.53;;
75059;SDS011;63640;59.264;18.116;2023-02-12T11:16:49;11.63;;;2.95;;
75059;SDS011;63640;59.264;18.116;2023-02-12T11:19:22;13.63;;;3.05;;
75059;SDS011;63640;59.264;18.116;2023-02-12T11:21:49;14.02;;;3.15;;
75059;SDS011;63640;59.264;18.116;2023-02-12T11:26:47;10.10;;;2.47;;
75059;SDS011;63640;59.264;18.116;2023-02-12T11:29:17;11.30;;;2.33;;
75059;SDS011;63640;59.264;18.116;2023-02-12T11:32:02;8.77;;;2.05;;
75059;SDS011;63640;59.264;18.116;2023-02-12T11:34:32;10.65;;;2.40;;
75059;SDS011;63640;59.264;18.116;2023-02-12T11:36:58;10.57;;;3.05;;
75059;SDS011;63640;59.264;18.116;2023-02-12T11:39:29;14.75;;;2.47;;
75059;SDS011;63640;59.264;18.116;2023-02-12T11:41:57;14.85;;;2.45;;
75059;SDS011;63640;59.264;18.116;2023-02-12T11:44:29;9.52;;;2.08;;
75059;SDS011;63640;59.264;18.116;2023-02-12T11:47:09;12.82;;;2.30;;
75059;SDS011;63640;59.264;18.116;2023-02-12T11:49:50;15.93;;;2.78;;
75059;SDS011;63640;59.264;18.116;2023-02-12T11:52:36;8.85;;;2.03;;
75059;SDS011;63640;59.264;18.116;2023-02-12T11:58:42;9.25;;;2.03;;
75059;SDS011;63640;59.264;18.116;2023-02-12T12:00:52;14.93;;;3.00;;
75059;SDS011;63640;59.264;18.116;2023-02-12T12:06:43;16.30;;;2.63;;
75059;SDS011;63640;59.264;18.116;2023-02-12T12:14:41;12.52;;;2.88;;
75059;SDS011;63640;59.264;18.116;2023-02-12T12:21:01;18.15;;;3.30;;
75059;SDS011;63640;59.264;18.116;2023-02-12T12:26:07;10.77;;;2.55;;
75059;SDS011;63640;59.264;18.116;2023-02-12T12:31:27;11.35;;;2.33;;
75059;SDS011;63640;59.264;18.116;2023-02-12T12:41:46;9.70;;;2.30;;
75059;SDS011;63640;59.264;18.116;2023-02-12T12:44:29;13.40;;;2.38;;
75059;SDS011;63640;59.264;18.116;2023-02-12T12:50:30;11.07;;;2.45;;
75059;SDS011;63640;59.264;18.116;2023-02-12T13:07:46;9.55;;;1.90;;
75059;SDS011;63640;59.264;18.116;2023-02-12T13:10:47;14.82;;;2.72;;
75059;SDS011;63640;59.264;18.116;2023-02-12T13:19:10;10.63;;;2.45;;
75059;SDS011;63640;59.264;18.116;2023-02-12T13:24:45;9.90;;;2.58;;
75059;SDS011;63640;59.264;18.116;2023-02-12T13:27:18;14.30;;;2.58;;
75059;SDS011;63640;59.264;18.116;2023-02-12T13:29:53;13.40;;;2.78;;
75059;SDS011;63640;59.264;18.116;2023-02-12T13:34:52;13.20;;;2.53;;
75059;SDS011;63640;59.264;18.116;2023-02-12T13:37:41;12.43;;;2.55;;
75059;SDS011;63640;59.264;18.116;2023-02-12T13:40:14;11.45;;;2.38;;
75059;SDS011;63640;59.264;18.116;2023-02-12T13:42:52;12.38;;;2.55;;
75059;SDS011;63640;59.264;18.116;2023-02-12T13:45:32;13.30;;;2.90;;
75059;SDS011;63640;59.264;18.116;2023-02-12T13:51:01;13.80;;;2.72;;
75059;SDS011;63640;59.264;18.116;2023-02-12T14:12:10;15.07;;;3.15;;
75059;SDS011;63640;59.264;18.116;2023-02-12T14:14:43;15.57;;;2.83;;
75059;SDS011;63640;59.264;18.116;2023-02-12T14:30:25;16.08;;;2.60;;
75059;SDS011;63640;59.264;18.116;2023-02-12T14:33:08;14.02;;;3.50;;
75059;SDS011;63640;59.264;18.116;2023-02-12T14:35:41;19.02;;;3.13;;
75059;SDS011;63640;59.264;18.116;2023-02-12T14:45:54;17.50;;;3.15;;
75059;SDS011;63640;59.264;18.116;2023-02-12T14:53:58;12.60;;;2.83;;
75059;SDS011;63640;59.264;18.116;2023-02-12T14:56:25;14.57;;;3.05;;
75059;SDS011;63640;59.264;18.116;2023-02-12T14:58:51;15.07;;;3.58;;
75059;SDS011;63640;59.264;18.116;2023-02-12T15:01:23;15.70;;;3.88;;
75059;SDS011;63640;59.264;18.116;2023-02-12T15:03:55;16.25;;;3.33;;
75059;SDS011;63640;59.264;18.116;2023-02-12T15:06:22;14.35;;;3.20;;
75059;SDS011;63640;59.264;18.116;2023-02-12T15:14:18;15.90;;;3.25;;
75059;SDS011;63640;59.264;18.116;2023-02-12T15:19:43;14.60;;;3.83;;
75059;SDS011;63640;59.264;18.116;2023-02-12T15:24:52;14.63;;;3.00;;
75059;SDS011;63640;59.264;18.116;2023-02-12T15:27:17;21.70;;;3.53;;
75059;SDS011;63640;59.264;18.116;2023-02-12T15:29:45;15.30;;;3.13;;
75059;SDS011;63640;59.264;18.116;2023-02-12T15:32:24;12.88;;;3.00;;
75059;SDS011;63640;59.264;18.116;2023-02-12T15:34:51;21.15;;;3.60;;
75059;SDS011;63640;59.264;18.116;2023-02-12T15:37:19;15.68;;;3.70;;
75059;SDS011;63640;59.264;18.116;2023-02-12T15:39:48;15.00;;;3.25;;
75059;SDS011;63640;59.264;18.116;2023-02-12T15:45:17;16.40;;;3.97;;
75059;SDS011;63640;59.264;18.116;2023-02-12T15:47:46;16.02;;;3.47;;
75059;SDS011;63640;59.264;18.116;2023-02-12T15:50:24;19.95;;;4.05;;
75059;SDS011;63640;59.264;18.116;2023-02-12T15:53:14;15.50;;;3.40;;
75059;SDS011;63640;59.264;18.116;2023-02-12T15:55:41;13.82;;;3.13;;
75059;SDS011;63640;59.264;18.116;2023-02-12T15:58:28;16.05;;;3.53;;
75059;SDS011;63640;59.264;18.116;2023-02-12T16:01:01;17.65;;;4.30;;
75059;SDS011;63640;59.264;18.116;2023-02-12T16:03:32;18.73;;;3.83;;
75059;SDS011;63640;59.264;18.116;2023-02-12T16:06:01;13.98;;;3.33;;
75059;SDS011;63640;59.264;18.116;2023-02-12T16:08:35;19.90;;;4.10;;
75059;SDS011;63640;59.264;18.116;2023-02-12T16:11:01;17.52;;;3.55;;
75059;SDS011;63640;59.264;18.116;2023-02-12T16:13:37;17.00;;;3.33;;
75059;SDS011;63640;59.264;18.116;2023-02-12T16:16:19;17.50;;;3.65;;
75059;SDS011;63640;59.264;18.116;2023-02-12T16:19:01;14.57;;;3.83;;
75059;SDS011;63640;59.264;18.116;2023-02-12T16:21:28;17.95;;;4.47;;
75059;SDS011;63640;59.264;18.116;2023-02-12T16:23:54;14.93;;;3.63;;
75059;SDS011;63640;59.264;18.116;2023-02-12T16:26:23;15.00;;;3.35;;
75059;SDS011;63640;59.264;18.116;2023-02-12T16:28:51;18.63;;;4.13;;
75059;SDS011;63640;59.264;18.116;2023-02-12T16:31:18;9.13;;;3.15;;
75059;SDS011;63640;59.264;18.116;2023-02-12T16:33:47;13.60;;;3.88;;
75059;SDS011;63640;59.264;18.116;2023-02-12T16:39:01;15.80;;;3.95;;
75059;SDS011;63640;59.264;18.116;2023-02-12T16:44:20;14.13;;;3.55;;
75059;SDS011;63640;59.264;18.116;2023-02-12T16:46:50;9.95;;;2.78;;
75059;SDS011;63640;59.264;18.116;2023-02-12T16:49:19;14.80;;;3.47;;
75059;SDS011;63640;59.264;18.116;2023-02-12T16:51:46;18.55;;;3.92;;
75059;SDS011;63640;59.264;18.116;2023-02-12T16:54:34;10.77;;;3.38;;
75059;SDS011;63640;59.264;18.116;2023-02-12T16:56:59;15.75;;;3.15;;
75059;SDS011;63640;59.264;18.116;2023-02-12T16:59:25;9.70;;;3.30;;
75059;SDS011;63640;59.264;18.116;2023-02-12T17:01:59;11.68;;;3.25;;
75059;SDS011;63640;59.264;18.116;2023-02-12T17:04:26;12.52;;;3.28;;
75059;SDS011;63640;59.264;18.116;2023-02-12T17:06:51;10.77;;;3.08;;
75059;SDS011;63640;59.264;18.116;2023-02-12T17:09:17;16.10;;;3.53;;
75059;SDS011;63640;59.264;18.116;2023-02-12T17:11:43;12.75;;;3.42;;
75059;SDS011;63640;59.264;18.116;2023-02-12T17:14:09;14.43;;;3.63;;
75059;SDS011;63640;59.264;18.116;2023-02-12T17:16:39;11.40;;;3.20;;
75059;SDS011;63640;59.264;18.116;2023-02-12T17:19:04;15.52;;;3.53;;
75059;SDS011;63640;59.264;18.116;2023-02-12T17:21:30;12.80;;;3.45;;
75059;SDS011;63640;59.264;18.116;2023-02-12T17:24:01;14.25;;;3.70;;
75059;SDS011;63640;59.264;18.116;2023-02-12T17:26:31;10.70;;;3.13;;
75059;SDS011;63640;59.264;18.116;2023-02-12T17:28:56;11.82;;;2.80;;
75059;SDS011;63640;59.264;18.116;2023-02-12T17:31:29;13.95;;;3.75;;
75059;SDS011;63640;59.264;18.116;2023-02-12T17:33:58;9.85;;;3.00;;
75059;SDS011;63640;59.264;18.116;2023-02-12T17:36:24;12.30;;;3.13;;
75059;SDS011;63640;59.264;18.116;2023-02-12T17:38:50;16.17;;;3.38;;
75059;SDS011;63640;59.264;18.116;2023-02-12T17:41:15;13.18;;;3.60;;
75059;SDS011;63640;59.264;18.116;2023-02-12T17:43:41;12.93;;;3.33;;
75059;SDS011;63640;59.264;18.116;2023-02-12T17:46:08;12.30;;;2.70;;
75059;SDS011;63640;59.264;18.116;2023-02-12T17:48:35;12.43;;;3.85;;
75059;SDS011;63640;59.264;18.116;2023-02-12T17:51:00;13.48;;;3.17;;
75059;SDS011;63640;59.264;18.116;2023-02-12T17:53:26;12.73;;;3.53;;
75059;SDS011;63640;59.264;18.116;2023-02-12T17:55:51;10.32;;;2.95;;
75059;SDS011;63640;59.264;18.116;2023-02-12T17:58:17;8.50;;;3.00;;
75059;SDS011;63640;59.264;18.116;2023-02-12T18:00:43;25.40;;;8.55;;
75059;SDS011;63640;59.264;18.116;2023-02-12T18:03:09;32.10;;;10.27;;
75059;SDS011;63640;59.264;18.116;2023-02-12T18:05:38;18.55;;;5.65;;
75059;SDS011;63640;59.264;18.116;2023-02-12T18:08:05;11.23;;;3.33;;
75059;SDS011;63640;59.264;18.116;2023-02-12T18:10:31;11.48;;;3.08;;
75059;SDS011;63640;59.264;18.116;2023-02-12T18:12:56;10.60;;;2.58;;
75059;SDS011;63640;59.264;18.116;2023-02-12T18:15:22;10.73;;;3.03;;
75059;SDS011;63640;59.264;18.116;2023-02-12T18:17:47;10.85;;;4.95;;
75059;SDS011;63640;59.264;18.116;2023-02-12T18:20:13;29.40;;;10.30;;
75059;SDS011;63640;59.264;18.116;2023-02-12T18:22:38;14.70;;;3.85;;
75059;SDS011;63640;59.264;18.116;2023-02-12T18:25:04;10.48;;;2.78;;
75059;SDS011;63640;59.264;18.116;2023-02-12T18:27:30;12.18;;;2.55;;
75059;SDS011;63640;59.264;18.116;2023-02-12T18:29:56;9.80;;;2.50;;
75059;SDS011;63640;59.264;18.116;2023-02-12T18:32:21;8.77;;;2.42;;
75059;SDS011;63640;59.264;18.116;2023-02-12T18:34:48;12.25;;;2.58;;